Terminal Aerodrome Forecast
Issued by NWS Cleveland, OH

Home | Current Version | Previous Version | Graphics & Text | Print | Product List | Glossary On
Versions: 1 2 3 4 5 6 7 8 9 10 11 12 13 14 15 16 17
781
FTUS41 KCLE 220906 AAA
TAFYNG
TAF AMD
KYNG 220906Z 2209/2306 30010KT 4SM -SHSN OVC012
      TEMPO 2209/2210 2SM -SN OVC005
     FM221000 31010KT P6SM -SHSN OVC020
     FM221200 31008KT P6SM BKN035
     FM222200 VRB06KT P6SM SCT250=

USA.gov is the U.S. government's official web portal to all federal, state and local government web resources and services.